Time;durP1;ratioP1;P1;durP2;ratioP2;P2;SDS_P1;SDS_P2;PMS_P1;PMS_P2;Temp;Humidity;BMP_temperature;BMP_pressure;BME280_temperature;BME280_humidity;BME280_pressure;Samples;Min_cycle;Max_cycle;Signal;HPM_P1;HPM_P2
2022/08/06 00:02:20;;;;;;;4.70;2.13;;;12.70;99.90;;;;;;5034734;28;20053;-70
2022/08/06 00:04:48;;;;;;;4.75;1.80;;;12.60;99.90;;;;;;5034836;28;20059;-68
2022/08/06 00:07:15;;;;;;;5.25;1.85;;;12.60;99.90;;;;;;5052095;28;20444;-68
2022/08/06 00:09:42;;;;;;;4.82;2.03;;;12.60;99.90;;;;;;5034779;28;20555;-69
2022/08/06 00:12:09;;;;;;;13.23;2.05;;;12.60;99.90;;;;;;5035140;28;20060;-69
2022/08/06 00:14:36;;;;;;;4.97;1.90;;;12.60;99.90;;;;;;5034332;28;20099;-69
2022/08/06 00:17:04;;;;;;;5.38;2.00;;;12.60;99.90;;;;;;5034605;28;20501;-69
2022/08/06 00:19:31;;;;;;;4.35;1.88;;;12.60;99.90;;;;;;5051966;28;20460;-70
2022/08/06 00:21:59;;;;;;;4.68;1.90;;;12.60;99.90;;;;;;5033777;28;20099;-69
2022/08/06 00:24:26;;;;;;;5.82;1.70;;;12.60;99.90;;;;;;5052391;28;20081;-69
2022/08/06 00:26:53;;;;;;;2.63;1.50;;;12.60;99.90;;;;;;5052669;28;20052;-69
2022/08/06 00:29:20;;;;;;;4.07;1.58;;;12.60;99.90;;;;;;5051884;28;20386;-69
2022/08/06 00:31:47;;;;;;;3.63;2.13;;;12.60;99.90;;;;;;5052143;28;20057;-69
2022/08/06 00:34:13;;;;;;;4.80;2.08;;;12.50;99.90;;;;;;5034719;28;20751;-69
2022/08/06 00:36:40;;;;;;;6.60;2.33;;;12.50;99.90;;;;;;5033513;28;20072;-69
2022/08/06 00:39:09;;;;;;;4.35;2.05;;;12.50;99.90;;;;;;5034105;28;20049;-69
2022/08/06 00:41:37;;;;;;;6.72;2.00;;;12.50;99.90;;;;;;5034020;28;20084;-69
2022/08/06 00:44:04;;;;;;;5.25;1.92;;;12.60;99.90;;;;;;5034279;28;20048;-70
2022/08/06 00:46:31;;;;;;;3.15;1.60;;;12.50;99.90;;;;;;5051527;28;20464;-69
2022/08/06 00:48:58;;;;;;;4.15;1.77;;;12.50;99.90;;;;;;5034604;28;20053;-69
2022/08/06 00:51:25;;;;;;;5.53;2.10;;;12.40;99.90;;;;;;5054432;28;20094;-70
2022/08/06 00:53:53;;;;;;;3.42;1.77;;;12.40;99.90;;;;;;5037911;28;20382;-69
2022/08/06 00:56:21;;;;;;;4.82;1.67;;;12.40;99.90;;;;;;5037705;28;20057;-68
2022/08/06 00:58:48;;;;;;;3.15;1.75;;;12.40;99.90;;;;;;5055984;28;20466;-69
2022/08/06 01:01:15;;;;;;;2.80;1.75;;;12.40;99.90;;;;;;5055687;28;20485;-70
2022/08/06 01:03:42;;;;;;;3.60;1.58;;;12.30;99.90;;;;;;5037591;28;20053;-68
2022/08/06 01:06:09;;;;;;;6.93;1.90;;;12.30;99.90;;;;;;5037314;28;20420;-69
2022/08/06 01:08:36;;;;;;;5.13;2.03;;;12.30;99.90;;;;;;5037939;28;20057;-69
2022/08/06 01:11:03;;;;;;;4.72;1.88;;;12.30;99.90;;;;;;5055282;28;20048;-70
2022/08/06 01:13:31;;;;;;;2.75;1.85;;;12.30;99.90;;;;;;5055317;28;20049;-69
2022/08/06 01:16:06;;;;;;;2.38;1.73;;;12.30;99.90;;;;;;5037509;28;20110;-69
2022/08/06 01:18:40;;;;;;;3.67;1.70;;;12.20;99.90;;;;;;5037313;28;20464;-69
2022/08/06 01:21:23;;;;;;;3.15;1.95;;;12.20;99.90;;;;;;5055429;28;20479;-69
2022/08/06 01:24:28;;;;;;;3.85;1.77;;;12.20;99.90;;;;;;5036982;28;20114;-68
2022/08/06 01:27:18;;;;;;;5.68;2.10;;;12.20;99.90;;;;;;5020529;28;20557;-68
2022/08/06 01:29:51;;;;;;;4.38;1.88;;;12.20;99.90;;;;;;5037401;28;20061;-68
2022/08/06 01:32:26;;;;;;;2.80;1.98;;;12.20;99.90;;;;;;5037077;28;20060;-69
2022/08/06 01:34:59;;;;;;;3.10;2.00;;;12.20;99.90;;;;;;5054745;28;20048;-70
2022/08/06 01:37:32;;;;;;;2.60;1.65;;;12.10;99.90;;;;;;5055349;28;20102;-69
2022/08/06 01:40:03;;;;;;;6.70;3.95;;;12.10;99.90;;;;;;5037056;28;20119;-70
2022/08/06 01:42:36;;;;;;;6.35;3.78;;;12.00;99.90;;;;;;5054492;28;20041;-70
2022/08/06 01:45:05;;;;;;;6.00;3.15;;;12.00;99.90;;;;;;5036565;28;20508;-68
2022/08/06 01:47:35;;;;;;;12.52;2.17;;;12.00;99.90;;;;;;5037227;28;20040;-69
2022/08/06 01:50:05;;;;;;;5.18;2.25;;;11.90;99.90;;;;;;5036276;28;20056;-68
2022/08/06 01:52:35;;;;;;;5.88;3.42;;;11.90;99.90;;;;;;5036820;28;20485;-68
2022/08/06 01:55:03;;;;;;;5.65;3.38;;;11.90;99.90;;;;;;5054796;28;20047;-68
2022/08/06 01:57:35;;;;;;;4.35;3.15;;;11.80;99.90;;;;;;5054716;28;20102;-68
2022/08/06 02:00:04;;;;;;;4.70;3.00;;;11.80;99.90;;;;;;5036247;28;20049;-69
2022/08/06 02:02:33;;;;;;;5.22;2.70;;;11.70;99.90;;;;;;5054629;28;20059;-68
2022/08/06 02:05:01;;;;;;;6.10;3.65;;;11.70;99.90;;;;;;5036718;28;20041;-68
2022/08/06 02:07:37;;;;;;;8.95;3.95;;;11.70;99.90;;;;;;5036587;28;20057;-68
2022/08/06 02:10:06;;;;;;;5.45;3.65;;;11.60;99.90;;;;;;5036702;28;20053;-69
2022/08/06 02:12:37;;;;;;;4.93;3.03;;;11.70;99.90;;;;;;5037050;28;20084;-70
2022/08/06 02:15:10;;;;;;;3.58;2.90;;;11.60;99.90;;;;;;5036032;28;20098;-68
2022/08/06 02:17:41;;;;;;;6.07;4.00;;;11.60;99.90;;;;;;5054292;28;20122;-68
2022/08/06 02:20:11;;;;;;;7.88;4.22;;;11.60;99.90;;;;;;5035890;28;20545;-68
2022/08/06 02:22:40;;;;;;;5.15;4.40;;;11.60;99.90;;;;;;5036194;28;20102;-69
2022/08/06 02:25:11;;;;;;;6.90;3.53;;;11.60;99.90;;;;;;5054501;28;20128;-69
2022/08/06 02:27:43;;;;;;;4.65;3.67;;;11.60;99.90;;;;;;5053817;28;20414;-68
2022/08/06 02:30:12;;;;;;;10.10;5.18;;;11.60;99.90;;;;;;5054202;28;20416;-69
2022/08/06 02:32:39;;;;;;;9.88;6.57;;;11.50;99.90;;;;;;5036544;28;20056;-67
2022/08/06 02:35:07;;;;;;;11.00;7.25;;;11.50;99.90;;;;;;5053006;28;20558;-69
2022/08/06 02:37:39;;;;;;;7.85;4.43;;;11.50;99.90;;;;;;5036324;28;20488;-68
2022/08/06 02:40:10;;;;;;;9.15;5.90;;;11.50;99.90;;;;;;5054055;28;20088;-68
2022/08/06 02:42:44;;;;;;;10.13;6.18;;;11.40;99.90;;;;;;5035510;28;20057;-69
2022/08/06 02:45:18;;;;;;;7.25;4.80;;;11.40;99.90;;;;;;5036041;28;20053;-68
2022/08/06 02:47:51;;;;;;;9.52;4.93;;;11.30;99.90;;;;;;5036038;28;20057;-69
2022/08/06 02:50:22;;;;;;;8.05;4.57;;;11.40;99.90;;;;;;5035673;28;20057;-69
2022/08/06 02:52:50;;;;;;;;;;;11.30;99.90;;;;;;5054118;28;20546;-69
2022/08/06 02:55:20;;;;;;;5.32;3.80;;;11.30;99.90;;;;;;5035291;28;20376;-69
2022/08/06 02:57:53;;;;;;;6.70;4.97;;;11.20;99.90;;;;;;5053226;28;20098;-69
2022/08/06 03:00:21;;;;;;;6.30;3.75;;;11.20;99.90;;;;;;5054016;28;20091;-68
2022/08/06 03:02:49;;;;;;;4.97;2.80;;;11.20;99.90;;;;;;5053168;28;20049;-69
2022/08/06 03:05:19;;;;;;;5.13;2.60;;;11.20;99.90;;;;;;5035367;28;20394;-68
2022/08/06 03:07:49;;;;;;;4.75;2.45;;;11.20;99.90;;;;;;5035449;28;20053;-69
2022/08/06 03:10:19;;;;;;;4.28;2.88;;;11.10;99.90;;;;;;5052943;28;20049;-69
2022/08/06 03:12:48;;;;;;;3.28;2.13;;;11.10;99.90;;;;;;5035005;28;20060;-68
2022/08/06 03:15:18;;;;;;;3.88;2.00;;;11.10;99.90;;;;;;5053626;28;20045;-69
2022/08/06 03:17:46;;;;;;;3.10;2.20;;;11.10;99.90;;;;;;5032747;28;20050;-69
2022/08/06 03:20:19;;;;;;;3.83;2.42;;;11.00;99.90;;;;;;5033000;28;20150;-69
2022/08/06 03:22:49;;;;;;;5.28;2.30;;;11.00;99.90;;;;;;5033370;28;20084;-69
2022/08/06 03:25:17;;;;;;;4.72;2.20;;;11.00;99.90;;;;;;5032928;28;20053;-68
2022/08/06 03:27:45;;;;;;;4.72;2.17;;;11.00;99.90;;;;;;5032949;28;20056;-69
2022/08/06 03:30:14;;;;;;;5.57;2.20;;;11.00;99.90;;;;;;5017032;28;20057;-69
2022/08/06 03:32:43;;;;;;;2.92;1.98;;;11.00;99.90;;;;;;5052469;28;20447;-69
2022/08/06 03:35:11;;;;;;;3.90;2.53;;;10.90;99.90;;;;;;5052907;28;20559;-68
2022/08/06 03:37:39;;;;;;;4.55;2.33;;;10.90;99.90;;;;;;5034952;28;20080;-67
2022/08/06 03:40:08;;;;;;;3.85;2.20;;;10.90;99.90;;;;;;5052595;28;20052;-68
2022/08/06 03:42:36;;;;;;;4.88;2.63;;;10.80;99.90;;;;;;5035268;28;20110;-68
2022/08/06 03:45:03;;;;;;;3.00;2.10;;;10.80;99.90;;;;;;5052176;28;20041;-69
2022/08/06 03:47:33;;;;;;;4.13;2.30;;;10.80;99.90;;;;;;5034579;28;20048;-68
2022/08/06 03:50:09;;;;;;;4.40;2.25;;;10.80;99.90;;;;;;5035011;28;20091;-68
2022/08/06 03:52:40;;;;;;;4.78;2.30;;;10.80;99.90;;;;;;5034229;28;20045;-68
2022/08/06 03:55:09;;;;;;;5.50;2.38;;;10.80;99.90;;;;;;5034695;28;20049;-69
2022/08/06 03:57:39;;;;;;;3.25;2.45;;;10.80;99.90;;;;;;5034644;28;20048;-68
2022/08/06 04:00:09;;;;;;;7.47;2.88;;;10.70;99.90;;;;;;5051718;28;20056;-68
2022/08/06 04:02:39;;;;;;;4.07;2.50;;;10.70;99.90;;;;;;5034688;28;20056;-68
2022/08/06 04:05:09;;;;;;;4.10;2.50;;;10.70;99.90;;;;;;5035279;28;20476;-68
2022/08/06 04:07:36;;;;;;;3.10;2.20;;;10.60;99.90;;;;;;5052321;28;20094;-67
2022/08/06 04:10:04;;;;;;;5.45;3.15;;;10.70;99.90;;;;;;5052120;28;20698;-70
2022/08/06 04:12:32;;;;;;;8.30;4.63;;;10.60;99.90;;;;;;5052218;28;20060;-68
2022/08/06 04:14:59;;;;;;;7.68;3.80;;;10.60;99.90;;;;;;5052426;28;20048;-68
2022/08/06 04:17:28;;;;;;;4.95;3.20;;;10.70;99.90;;;;;;5052599;28;20118;-69
2022/08/06 04:19:55;;;;;;;4.57;3.30;;;10.60;99.90;;;;;;5051413;28;20099;-68
2022/08/06 04:22:24;;;;;;;4.93;3.55;;;10.70;99.90;;;;;;5052449;28;20090;-68
2022/08/06 04:24:50;;;;;;;6.10;3.15;;;10.70;99.90;;;;;;5038777;28;20061;-69
2022/08/06 04:27:19;;;;;;;10.60;4.18;;;10.90;99.90;;;;;;5038429;28;20546;-69
2022/08/06 04:29:48;;;;;;;6.95;3.38;;;10.90;99.90;;;;;;5038439;28;20500;-69
2022/08/06 04:32:16;;;;;;;8.88;3.22;;;11.00;99.90;;;;;;5056531;28;20056;-68
2022/08/06 04:34:44;;;;;;;4.97;2.65;;;11.10;99.90;;;;;;5056010;28;20099;-68
2022/08/06 04:37:11;;;;;;;4.43;2.42;;;11.20;99.90;;;;;;5038376;28;20068;-68
2022/08/06 04:39:40;;;;;;;5.07;3.15;;;11.30;99.90;;;;;;5056234;28;20386;-68
2022/08/06 04:42:08;;;;;;;3.20;2.35;;;11.40;99.90;;;;;;5037628;28;20500;-68
2022/08/06 04:44:36;;;;;;;4.90;2.30;;;11.50;99.90;;;;;;5038467;28;20053;-68
2022/08/06 04:47:03;;;;;;;6.13;2.58;;;11.60;99.90;;;;;;5038001;28;20094;-69
2022/08/06 04:49:31;;;;;;;5.47;2.75;;;11.70;99.90;;;;;;5038089;28;20061;-68
2022/08/06 04:51:58;;;;;;;3.13;1.90;;;11.80;99.90;;;;;;5037090;28;20057;-68
2022/08/06 04:54:25;;;;;;;4.43;2.45;;;12.00;99.90;;;;;;5055015;28;20052;-69
2022/08/06 04:56:53;;;;;;;4.72;1.92;;;12.00;99.90;;;;;;5037347;28;20067;-68
2022/08/06 04:59:20;;;;;;;4.00;1.83;;;12.10;99.90;;;;;;5042371;28;20046;-68
2022/08/06 05:01:47;;;;;;;4.25;2.22;;;12.40;99.90;;;;;;5032872;28;20076;-69
2022/08/06 05:04:14;;;;;;;2.90;1.75;;;13.00;99.90;;;;;;5017646;28;20068;-70
2022/08/06 05:06:48;;;;;;;3.08;1.63;;;13.20;99.90;;;;;;5038445;28;20045;-69
2022/08/06 05:09:20;;;;;;;6.65;2.13;;;13.50;99.90;;;;;;5034583;28;20053;-69
2022/08/06 05:11:51;;;;;;;4.35;1.75;;;13.80;99.90;;;;;;5036227;28;20049;-69
2022/08/06 05:14:27;;;;;;;6.85;4.00;;;13.90;99.90;;;;;;5034826;28;20095;-69
2022/08/06 05:16:56;;;;;;;3.25;2.45;;;14.10;99.90;;;;;;5018548;28;20045;-68
2022/08/06 05:19:29;;;;;;;3.50;2.07;;;14.00;99.90;;;;;;5015668;28;20130;-69
2022/08/06 05:21:59;;;;;;;5.75;2.35;;;14.00;99.90;;;;;;5016247;28;20354;-69
2022/08/06 05:24:26;;;;;;;3.75;2.85;;;13.80;99.90;;;;;;5015613;28;20107;-69
2022/08/06 05:26:53;;;;;;;4.03;2.35;;;13.70;99.90;;;;;;5015179;28;20045;-69
2022/08/06 05:29:22;;;;;;;4.22;2.47;;;14.20;99.90;;;;;;5036061;28;20706;-69
2022/08/06 05:31:49;;;;;;;4.75;1.92;;;13.90;99.90;;;;;;5033493;28;20121;-68
2022/08/06 05:34:16;;;;;;;3.65;2.55;;;14.20;99.90;;;;;;5033980;28;20092;-69
2022/08/06 05:36:43;;;;;;;5.13;2.75;;;14.40;99.90;;;;;;5033645;28;20045;-69
2022/08/06 05:39:10;;;;;;;3.75;2.28;;;14.30;99.90;;;;;;5015142;28;20069;-69
2022/08/06 05:41:37;;;;;;;3.25;1.95;;;14.20;99.90;;;;;;5038367;28;20457;-68
2022/08/06 05:44:04;;;;;;;3.15;2.10;;;13.90;99.90;;;;;;5015297;28;20909;-68
2022/08/06 05:46:36;;;;;;;3.85;2.40;;;13.90;99.90;;;;;;5033179;28;20041;-68
2022/08/06 05:49:07;;;;;;;4.05;2.28;;;13.70;99.90;;;;;;5016525;28;20052;-68
2022/08/06 05:51:39;;;;;;;10.23;2.10;;;13.60;99.90;;;;;;5021195;28;20052;-68
2022/08/06 05:54:12;;;;;;;3.05;2.03;;;13.40;99.90;;;;;;5016241;28;20049;-68
2022/08/06 05:56:44;;;;;;;3.25;2.25;;;13.40;99.90;;;;;;5016354;28;20051;-68
2022/08/06 05:59:17;;;;;;;4.05;2.30;;;13.40;99.90;;;;;;5033203;28;20045;-69
2022/08/06 06:01:47;;;;;;;4.07;2.33;;;13.30;99.90;;;;;;5015362;28;20045;-69
2022/08/06 06:04:15;;;;;;;5.25;2.13;;;13.40;99.90;;;;;;5035561;28;20095;-69
2022/08/06 06:06:43;;;;;;;5.90;2.80;;;13.60;99.90;;;;;;5035445;28;20099;-69
2022/08/06 06:09:13;;;;;;;7.60;2.97;;;13.60;99.90;;;;;;5018928;28;20077;-67
2022/08/06 06:11:41;;;;;;;4.43;2.63;;;13.70;99.90;;;;;;5036221;28;20081;-68
2022/08/06 06:14:18;;;;;;;4.43;2.22;;;13.70;99.90;;;;;;5014864;28;20148;-68
2022/08/06 06:16:55;;;;;;;3.08;2.40;;;13.80;99.90;;;;;;5027031;28;20041;-69
2022/08/06 06:19:35;;;;;;;4.90;2.22;;;14.10;99.90;;;;;;5033921;28;20057;-68
2022/08/06 06:22:09;;;;;;;3.13;1.80;;;14.50;99.90;;;;;;5033791;28;20052;-69
2022/08/06 06:24:42;;;;;;;3.05;2.10;;;15.00;99.90;;;;;;5014755;28;20073;-68
2022/08/06 06:27:30;;;;;;;3.25;2.10;;;15.50;99.90;;;;;;5033484;28;20102;-69
2022/08/06 06:30:02;;;;;;;3.70;1.60;;;16.10;99.90;;;;;;5031843;28;20056;-69
2022/08/06 06:32:42;;;;;;;4.80;1.95;;;16.70;99.90;;;;;;5015690;28;20056;-68
2022/08/06 06:35:23;;;;;;;4.22;2.30;;;17.20;99.90;;;;;;5033436;28;20045;-69
2022/08/06 06:37:56;;;;;;;4.07;1.85;;;17.50;99.90;;;;;;5014836;28;20053;-68
2022/08/06 06:40:39;;;;;;;2.63;1.60;;;17.50;99.90;;;;;;5014107;28;20084;-70
2022/08/06 06:43:12;;;;;;;4.00;1.50;;;17.60;99.90;;;;;;5014444;28;20053;-69
2022/08/06 06:45:44;;;;;;;3.35;1.55;;;17.60;99.90;;;;;;5015300;28;20473;-68
2022/08/06 06:48:17;;;;;;;2.15;1.25;;;17.50;99.90;;;;;;5033640;28;20069;-69
2022/08/06 06:50:48;;;;;;;5.60;1.73;;;17.40;99.90;;;;;;5039243;28;20090;-69
2022/08/06 06:53:17;;;;;;;4.82;1.75;;;17.60;99.90;;;;;;5026426;28;20208;-70
2022/08/06 06:55:46;;;;;;;3.97;1.55;;;17.30;99.90;;;;;;5031944;28;20382;-70
2022/08/06 06:58:32;;;;;;;4.50;1.20;;;17.90;99.90;;;;;;5033306;28;20393;-70
2022/08/06 07:01:00;;;;;;;3.33;1.10;;;18.80;99.90;;;;;;5031936;28;20129;-70
2022/08/06 07:03:31;;;;;;;2.53;1.08;;;19.80;99.90;;;;;;5018522;28;20103;-69
2022/08/06 07:05:59;;;;;;;4.60;0.98;;;20.60;99.90;;;;;;5017470;28;20583;-69
2022/08/06 07:08:28;;;;;;;3.35;1.10;;;21.30;99.90;;;;;;5015523;28;20056;-70
2022/08/06 07:10:56;;;;;;;4.68;1.70;;;21.70;99.90;;;;;;5037222;28;20076;-70
2022/08/06 07:13:25;;;;;;;4.18;1.40;;;22.10;99.40;;;;;;5043759;28;20081;-69
2022/08/06 07:15:54;;;;;;;2.65;0.90;;;22.40;99.00;;;;;;5021987;28;20063;-69
2022/08/06 07:18:23;;;;;;;5.43;1.17;;;22.80;98.10;;;;;;5024778;28;20073;-69
2022/08/06 07:20:51;;;;;;;3.35;0.90;;;23.10;96.80;;;;;;5039657;28;20091;-69
2022/08/06 07:23:20;;;;;;;2.58;0.80;;;23.40;96.10;;;;;;5039775;28;20838;-70
2022/08/06 07:25:48;;;;;;;3.05;0.80;;;23.40;95.50;;;;;;5040174;28;20045;-69
2022/08/06 07:28:16;;;;;;;2.58;1.02;;;23.10;94.80;;;;;;5045172;28;20055;-70
2022/08/06 07:30:44;;;;;;;4.40;0.70;;;23.00;95.40;;;;;;5023461;28;20056;-69
2022/08/06 07:33:12;;;;;;;4.70;1.23;;;23.30;94.80;;;;;;5047681;28;20052;-69
2022/08/06 07:35:42;;;;;;;4.72;0.85;;;24.10;94.40;;;;;;5035978;28;20045;-69
2022/08/06 07:38:12;;;;;;;4.17;0.70;;;24.80;93.30;;;;;;5013261;28;20048;-69
2022/08/06 07:40:43;;;;;;;2.88;0.70;;;25.00;92.70;;;;;;5031483;28;20124;-70
2022/08/06 07:43:14;;;;;;;3.08;0.90;;;25.30;91.60;;;;;;5016742;28;20107;-70
2022/08/06 07:45:41;;;;;;;4.18;0.80;;;25.60;90.30;;;;;;5013033;28;20064;-70
2022/08/06 07:48:12;;;;;;;4.40;0.88;;;26.00;91.10;;;;;;5014305;28;20049;-69
2022/08/06 07:50:40;;;;;;;5.18;0.77;;;26.60;88.90;;;;;;5017433;28;20061;-70
2022/08/06 07:53:08;;;;;;;2.83;0.70;;;27.20;89.50;;;;;;5020940;28;20654;-68
2022/08/06 07:55:37;;;;;;;1.88;0.50;;;27.80;86.90;;;;;;5016585;28;20068;-70
2022/08/06 07:58:05;;;;;;;3.58;0.60;;;27.70;83.60;;;;;;5039466;28;20083;-69
2022/08/06 08:00:33;;;;;;;1.92;0.65;;;27.30;84.30;;;;;;5031079;28;20068;-71
2022/08/06 08:08:30;;;;;;;5.47;0.88;;;28.70;80.50;;;;;;5032672;28;20110;-70
2022/08/06 08:10:59;;;;;;;3.03;0.93;;;29.30;78.60;;;;;;5020228;28;20048;-71
2022/08/06 08:13:26;;;;;;;2.50;0.77;;;29.40;76.10;;;;;;5025855;28;20394;-70
2022/08/06 08:15:56;;;;;;;2.40;0.63;;;29.70;76.00;;;;;;5015822;28;20742;-70
2022/08/06 08:18:29;;;;;;;2.40;0.82;;;29.50;75.10;;;;;;5013341;28;20107;-71
2022/08/06 08:20:58;;;;;;;2.75;0.70;;;29.40;72.30;;;;;;5030137;28;20049;-70
2022/08/06 08:23:26;;;;;;;1.50;0.70;;;28.40;74.50;;;;;;5031938;28;20091;-70
2022/08/06 08:25:53;;;;;;;2.00;0.60;;;27.60;75.30;;;;;;5032270;28;20053;-71
2022/08/06 08:28:21;;;;;;;6.22;0.90;;;26.90;76.70;;;;;;5046276;28;20049;-71
2022/08/06 08:30:48;;;;;;;1.50;0.60;;;25.90;76.40;;;;;;5052497;28;20052;-70
2022/08/06 08:33:16;;;;;;;2.47;0.82;;;25.20;77.20;;;;;;5052245;28;20056;-70
2022/08/06 08:35:43;;;;;;;2.60;0.80;;;24.20;78.70;;;;;;5052449;28;20465;-70
2022/08/06 08:38:09;;;;;;;2.47;0.68;;;23.60;79.90;;;;;;5034731;28;20103;-71
2022/08/06 08:40:37;;;;;;;3.25;0.93;;;23.10;82.20;;;;;;5051917;28;20049;-70
2022/08/06 08:43:08;;;;;;;3.05;0.82;;;22.60;85.40;;;;;;5034611;28;20049;-70
2022/08/06 08:45:37;;;;;;;2.60;0.70;;;22.30;88.90;;;;;;5034967;28;20064;-71
2022/08/06 08:48:05;;;;;;;3.53;0.60;;;22.10;91.20;;;;;;5033805;28;20049;-69
2022/08/06 08:50:34;;;;;;;4.00;1.08;;;21.70;91.70;;;;;;5051879;28;20056;-71
2022/08/06 08:53:05;;;;;;;4.43;0.80;;;21.60;92.30;;;;;;5034572;28;20061;-70
2022/08/06 08:55:32;;;;;;;9.50;1.38;;;21.50;93.00;;;;;;5033920;28;20559;-70
2022/08/06 08:58:00;;;;;;;3.97;0.90;;;21.40;94.10;;;;;;5052339;28;20082;-71
2022/08/06 09:00:27;;;;;;;4.32;1.20;;;21.40;94.10;;;;;;5052218;28;20110;-69
2022/08/06 09:02:57;;;;;;;2.42;1.33;;;21.20;94.20;;;;;;5051633;28;20057;-69
2022/08/06 09:05:24;;;;;;;;;;;21.10;94.60;;;;;;5034922;28;20060;-69
2022/08/06 09:07:52;;;;;;;4.70;1.38;;;21.00;94.70;;;;;;5034689;28;20007;-70
2022/08/06 09:10:19;;;;;;;4.05;1.40;;;20.90;94.60;;;;;;5052471;28;20451;-71
2022/08/06 09:12:47;;;;;;;3.47;1.48;;;20.90;94.50;;;;;;5056277;28;20053;-70
2022/08/06 09:15:16;;;;;;;5.43;1.52;;;20.90;94.70;;;;;;5055353;28;20053;-69
2022/08/06 09:17:43;;;;;;;2.90;1.30;;;20.90;94.80;;;;;;5037960;28;20053;-69
2022/08/06 09:20:12;;;;;;;3.85;1.40;;;21.00;94.70;;;;;;5055515;28;20099;-70
2022/08/06 09:22:39;;;;;;;4.75;1.10;;;21.40;94.50;;;;;;5055284;28;20060;-69
2022/08/06 09:25:06;;;;;;;3.85;1.30;;;22.60;93.70;;;;;;5037967;28;20400;-70
2022/08/06 09:27:35;;;;;;;4.63;1.05;;;23.20;91.60;;;;;;5037922;28;20048;-70
2022/08/06 09:30:07;;;;;;;3.28;1.30;;;23.50;90.40;;;;;;5054740;28;20501;-70
2022/08/06 09:32:38;;;;;;;3.05;1.13;;;23.10;89.10;;;;;;5037812;28;20052;-71
2022/08/06 09:35:17;;;;;;;3.38;1.00;;;22.60;90.30;;;;;;5037958;28;20057;-71
2022/08/06 09:37:45;;;;;;;3.25;1.20;;;22.60;89.70;;;;;;5054465;28;20056;-71
2022/08/06 09:40:17;;;;;;;3.25;1.45;;;22.60;90.00;;;;;;5053219;28;20411;-70
2022/08/06 09:42:46;;;;;;;4.32;1.25;;;23.00;88.40;;;;;;5029884;28;20052;-70
2022/08/06 09:45:14;;;;;;;2.13;1.20;;;23.10;87.60;;;;;;5017087;28;20516;-71
2022/08/06 09:47:41;;;;;;;2.30;1.25;;;23.20;86.50;;;;;;5043275;28;20094;-70
2022/08/06 09:50:10;;;;;;;3.35;1.73;;;23.50;85.30;;;;;;5034441;28;20775;-70
2022/08/06 09:52:38;;;;;;;4.55;1.10;;;24.60;84.60;;;;;;5032018;28;20493;-71
2022/08/06 09:55:06;;;;;;;3.30;1.10;;;25.70;80.60;;;;;;5033903;28;20053;-71
2022/08/06 09:57:44;;;;;;;4.97;1.60;;;26.80;79.60;;;;;;5033687;28;20489;-71
2022/08/06 10:00:12;;;;;;;2.58;1.52;;;27.50;73.50;;;;;;5015607;28;20053;-69
2022/08/06 10:02:40;;;;;;;3.70;1.10;;;27.60;76.30;;;;;;5033882;28;20061;-70
2022/08/06 10:05:09;;;;;;;2.45;1.20;;;27.40;75.90;;;;;;5033243;28;20055;-70
2022/08/06 10:07:36;;;;;;;3.17;1.20;;;26.90;75.00;;;;;;5037582;28;20041;-71
2022/08/06 10:10:05;;;;;;;4.75;1.58;;;26.50;74.80;;;;;;5015508;28;20053;-72
2022/08/06 10:12:32;;;;;;;3.63;1.13;;;27.10;74.30;;;;;;5015377;28;20138;-71
2022/08/06 10:15:00;;;;;;;4.53;1.33;;;27.60;72.90;;;;;;5034256;28;20467;-70
2022/08/06 10:17:28;;;;;;;8.43;1.45;;;28.40;73.30;;;;;;5015665;28;20053;-71
2022/08/06 10:20:10;;;;;;;2.88;1.30;;;29.20;72.00;;;;;;5015574;28;20068;-71
2022/08/06 10:22:49;;;;;;;4.57;1.30;;;29.90;67.30;;;;;;5028854;28;20049;-70
2022/08/06 10:25:20;;;;;;;3.58;1.27;;;29.90;69.40;;;;;;5033571;28;20045;-72
2022/08/06 10:27:48;;;;;;;2.45;1.20;;;29.90;67.50;;;;;;5013725;28;20049;-72
2022/08/06 10:30:15;;;;;;;3.05;1.20;;;30.30;67.40;;;;;;5015558;28;20064;-71
2022/08/06 10:32:48;;;;;;;2.08;1.00;;;30.50;67.40;;;;;;5015490;28;20103;-72
2022/08/06 10:35:17;;;;;;;2.35;1.00;;;29.90;65.00;;;;;;5035131;28;20056;-71
2022/08/06 10:37:48;;;;;;;2.80;1.00;;;29.20;64.70;;;;;;5037100;28;20044;-71
2022/08/06 10:40:15;;;;;;;2.40;1.30;;;28.30;65.30;;;;;;5032139;28;20186;-71
2022/08/06 10:42:45;;;;;;;2.95;1.27;;;27.30;66.20;;;;;;5015133;28;20059;-72
2022/08/06 10:45:13;;;;;;;;;;;26.90;66.80;;;;;;5023978;28;20057;-71
2022/08/06 10:47:40;;;;;;;3.92;1.70;;;27.10;67.40;;;;;;5032109;28;19921;-71
2022/08/06 10:50:09;;;;;;;4.07;1.48;;;27.20;67.80;;;;;;5032890;28;20061;-72
2022/08/06 10:52:37;;;;;;;3.15;1.60;;;27.50;67.90;;;;;;5036969;28;20382;-71
2022/08/06 10:55:06;;;;;;;2.63;1.42;;;27.50;68.20;;;;;;5034120;28;20063;-71
2022/08/06 10:57:33;;;;;;;3.33;1.40;;;27.40;67.90;;;;;;5042309;28;20050;-71
2022/08/06 11:00:02;;;;;;;1.88;1.40;;;27.30;67.30;;;;;;5028171;28;20056;-71
2022/08/06 11:02:38;;;;;;;3.33;1.67;;;27.40;66.90;;;;;;5032328;28;20049;-70
2022/08/06 11:05:09;;;;;;;2.40;1.40;;;27.30;66.30;;;;;;5021040;28;20504;-71
2022/08/06 11:07:55;;;;;;;2.63;1.15;;;27.00;66.00;;;;;;5034591;28;20103;-71
2022/08/06 11:10:38;;;;;;;2.47;1.27;;;27.00;64.50;;;;;;5022440;28;20044;-71
2022/08/06 11:13:14;;;;;;;3.45;1.80;;;27.10;65.00;;;;;;5032261;28;20107;-71
2022/08/06 11:15:46;;;;;;;4.50;1.70;;;27.50;65.00;;;;;;5014142;28;20103;-70
2022/08/06 11:18:13;;;;;;;5.15;1.50;;;27.70;64.30;;;;;;5014512;28;20065;-71
2022/08/06 11:20:43;;;;;;;2.60;1.65;;;27.80;64.40;;;;;;5032093;28;20520;-71
2022/08/06 11:23:30;;;;;;;2.97;1.73;;;27.50;63.20;;;;;;5034978;28;20049;-71
2022/08/06 11:25:58;;;;;;;4.03;1.80;;;27.40;63.40;;;;;;5014462;28;20099;-72
2022/08/06 11:28:57;;;;;;;3.25;1.50;;;27.50;63.70;;;;;;5032502;28;20053;-72
2022/08/06 11:31:38;;;;;;;3.03;2.03;;;27.60;62.80;;;;;;5014106;28;20060;-71
2022/08/06 11:34:09;;;;;;;3.20;1.85;;;27.60;61.70;;;;;;5030402;28;20075;-71
2022/08/06 11:36:50;;;;;;;2.83;1.85;;;28.10;62.40;;;;;;5037008;28;20048;-71
2022/08/06 11:39:20;;;;;;;5.22;2.05;;;29.20;61.40;;;;;;5036436;28;20449;-72
2022/08/06 11:41:53;;;;;;;5.20;1.85;;;30.10;62.10;;;;;;5031986;28;20052;-71
2022/08/06 11:44:21;;;;;;;2.95;1.80;;;31.20;61.70;;;;;;5031977;28;20059;-72
2022/08/06 11:46:50;;;;;;;2.40;1.63;;;32.10;60.80;;;;;;5034199;28;20049;-72
2022/08/06 11:49:20;;;;;;;4.30;1.70;;;32.60;59.90;;;;;;5018014;28;20118;-72
2022/08/06 11:51:50;;;;;;;4.20;2.10;;;32.60;59.60;;;;;;5034933;28;20409;-72
2022/08/06 11:54:18;;;;;;;2.78;1.83;;;32.70;58.80;;;;;;5028570;28;20071;-72
2022/08/06 11:57:19;;;;;;;3.72;1.95;;;32.60;58.00;;;;;;5041935;28;20056;-72
2022/08/06 12:00:01;;;;;;;5.00;2.03;;;31.40;56.60;;;;;;5014888;28;20059;-72
2022/08/06 12:02:53;;;;;;;3.50;2.17;;;31.10;58.00;;;;;;5033566;28;20049;-72
2022/08/06 12:05:47;;;;;;;3.53;2.00;;;31.00;59.00;;;;;;5031458;28;20060;-72
2022/08/06 12:08:26;;;;;;;4.05;2.28;;;31.20;59.40;;;;;;5049902;28;20053;-71
2022/08/06 12:11:22;;;;;;;3.88;2.13;;;31.70;59.20;;;;;;5020191;28;20136;-72
2022/08/06 12:13:49;;;;;;;2.90;1.88;;;32.50;59.00;;;;;;5018015;28;20061;-72
2022/08/06 12:16:34;;;;;;;2.72;1.77;;;31.10;58.20;;;;;;5023558;28;20060;-72
2022/08/06 12:19:11;;;;;;;3.88;1.73;;;31.10;56.60;;;;;;5049624;28;20049;-71
2022/08/06 12:21:39;;;;;;;3.15;1.70;;;30.80;58.20;;;;;;5036569;28;20049;-71
2022/08/06 12:24:07;;;;;;;3.63;2.03;;;30.70;59.10;;;;;;5014312;28;20057;-71
2022/08/06 12:26:35;;;;;;;3.60;2.00;;;31.50;59.50;;;;;;5013031;28;20088;-72
2022/08/06 12:29:04;;;;;;;3.25;1.83;;;30.90;58.60;;;;;;5034385;28;20072;-71
2022/08/06 12:31:33;;;;;;;2.60;1.90;;;30.60;59.10;;;;;;5020181;28;20054;-71
2022/08/06 12:34:05;;;;;;;4.47;2.03;;;30.70;58.80;;;;;;5012790;28;20049;-71
2022/08/06 12:36:34;;;;;;;3.45;2.22;;;31.00;57.80;;;;;;5013460;28;20049;-71
2022/08/06 12:39:04;;;;;;;3.60;2.13;;;30.80;57.70;;;;;;5016047;28;20053;-71
2022/08/06 12:41:43;;;;;;;2.60;2.00;;;31.30;58.30;;;;;;5049767;28;20505;-71
2022/08/06 12:44:11;;;;;;;3.00;1.95;;;31.60;58.40;;;;;;5025171;28;20061;-71
2022/08/06 12:46:38;;;;;;;3.92;2.03;;;31.80;58.70;;;;;;5015588;28;20056;-71
2022/08/06 12:49:08;;;;;;;3.42;2.53;;;32.00;57.40;;;;;;5015990;28;20075;-71
2022/08/06 12:51:35;;;;;;;2.80;2.03;;;32.00;56.30;;;;;;5052469;28;20604;-71
2022/08/06 12:54:04;;;;;;;5.88;3.08;;;32.10;56.20;;;;;;5039590;28;20045;-71
2022/08/06 12:56:34;;;;;;;2.80;2.15;;;32.00;55.80;;;;;;5018530;28;20057;-71
2022/08/06 12:59:04;;;;;;;4.90;2.22;;;31.70;53.80;;;;;;5017745;28;20088;-71
2022/08/06 13:01:33;;;;;;;2.75;2.20;;;31.90;55.00;;;;;;5017867;28;20519;-72
2022/08/06 13:04:02;;;;;;;2.78;1.98;;;32.10;56.10;;;;;;5025430;28;20053;-71
2022/08/06 13:06:35;;;;;;;3.85;1.90;;;32.30;56.10;;;;;;5050965;28;20413;-70
2022/08/06 13:09:02;;;;;;;5.53;1.95;;;32.50;56.00;;;;;;5015883;28;20107;-71
2022/08/06 13:11:30;;;;;;;2.63;1.83;;;32.30;55.10;;;;;;5052919;28;20060;-70